Time;durP1;ratioP1;P1;durP2;ratioP2;P2;SDS_P1;SDS_P2;PMS_P1;PMS_P2;Temp;Humidity;BMP_temperature;BMP_pressure;BME280_temperature;BME280_humidity;BME280_pressure;Samples;Min_cycle;Max_cycle;Signal;HPM_P1;HPM_P2
2021/05/30 00:02:26;;;;;;;9.38;6.07;;;;;;;;;;4921517;29;20559;-54
2021/05/30 00:04:53;;;;;;;12.23;6.20;;;;;;;;;;4924681;29;20072;-56
2021/05/30 00:07:22;;;;;;;8.88;5.13;;;;;;;;;;4925342;29;20126;-55
2021/05/30 00:09:53;;;;;;;7.60;5.55;;;;;;;;;;4924289;29;20047;-54
2021/05/30 00:12:20;;;;;;;19.25;5.57;;;;;;;;;;4929954;29;20043;-54
2021/05/30 00:14:47;;;;;;;10.13;5.78;;;;;;;;;;4924141;29;20043;-57
2021/05/30 00:17:19;;;;;;;9.18;5.63;;;;;;;;;;4927037;29;20056;-56
2021/05/30 00:19:46;;;;;;;9.50;5.25;;;;;;;;;;4923935;29;20440;-53
2021/05/30 00:22:12;;;;;;;10.38;5.57;;;;;;;;;;4924547;29;20092;-55
2021/05/30 00:24:40;;;;;;;12.43;5.82;;;;;;;;;;4924637;29;20044;-55
2021/05/30 00:27:06;;;;;;;10.27;5.22;;;;;;;;;;4924773;29;20067;-56
2021/05/30 00:29:33;;;;;;;7.93;5.55;;;;;;;;;;4923699;29;20055;-56
2021/05/30 00:32:00;;;;;;;8.68;5.55;;;;;;;;;;4925202;29;20602;-54
2021/05/30 00:34:27;;;;;;;10.13;5.57;;;;;;;;;;4925992;29;20048;-53
2021/05/30 00:36:54;;;;;;;9.35;5.72;;;;;;;;;;4922947;29;20075;-55
2021/05/30 00:39:21;;;;;;;10.90;5.60;;;;;;;;;;4920936;29;20035;-55
2021/05/30 00:41:49;;;;;;;9.07;5.45;;;;;;;;;;4920568;29;20051;-53
2021/05/30 00:44:28;;;;;;;10.20;5.00;;;;;;;;;;4927155;29;20195;-56
2021/05/30 00:46:56;;;;;;;13.02;6.05;;;;;;;;;;4923622;29;20056;-55
2021/05/30 00:49:23;;;;;;;9.55;5.68;;;;;;;;;;4927372;29;20052;-56
2021/05/30 00:51:50;;;;;;;7.15;5.15;;;;;;;;;;4926808;29;20043;-53
2021/05/30 00:54:18;;;;;;;8.98;6.03;;;;;;;;;;4926712;29;20404;-55
2021/05/30 00:56:45;;;;;;;10.70;5.78;;;;;;;;;;4927916;29;20071;-56
2021/05/30 00:59:12;;;;;;;10.45;6.05;;;;;;;;;;4930401;29;20619;-57
2021/05/30 01:01:40;;;;;;;8.18;5.82;;;;;;;;;;4929317;29;20512;-54
2021/05/30 01:04:08;;;;;;;13.15;6.18;;;;;;;;;;4928226;29;20042;-57
2021/05/30 01:06:37;;;;;;;18.88;7.43;;;;;;;;;;4924769;29;20130;-57
2021/05/30 01:09:04;;;;;;;18.35;9.05;;;;;;;;;;4922500;29;20081;-58
2021/05/30 01:11:31;;;;;;;19.50;9.32;;;;;;;;;;4921954;29;20137;-56
2021/05/30 01:13:58;;;;;;;21.23;9.80;;;;;;;;;;4928101;29;20054;-57
2021/05/30 01:16:26;;;;;;;18.55;8.88;;;;;;;;;;4928667;28;20051;-56
2021/05/30 01:18:54;;;;;;;20.35;10.15;;;;;;;;;;4930632;29;20134;-56
2021/05/30 01:21:22;;;;;;;25.92;10.60;;;;;;;;;;4927065;29;20043;-58
2021/05/30 01:23:53;;;;;;;25.70;10.65;;;;;;;;;;4927110;29;20508;-58
2021/05/30 01:26:20;;;;;;;20.73;9.73;;;;;;;;;;4928042;29;20097;-58
2021/05/30 01:28:47;;;;;;;27.73;10.82;;;;;;;;;;4927341;29;20496;-55
2021/05/30 01:31:15;;;;;;;24.73;10.13;;;;;;;;;;4924983;29;20040;-57
2021/05/30 01:33:42;;;;;;;12.82;7.95;;;;;;;;;;4925448;29;20079;-58
2021/05/30 01:36:09;;;;;;;15.25;6.95;;;;;;;;;;4927597;29;20058;-57
2021/05/30 01:38:37;;;;;;;12.82;6.82;;;;;;;;;;4928893;29;20044;-57
2021/05/30 01:41:04;;;;;;;12.68;7.13;;;;;;;;;;4923531;29;20052;-58
2021/05/30 01:43:31;;;;;;;12.52;6.65;;;;;;;;;;4924648;29;20045;-58
2021/05/30 01:45:59;;;;;;;19.98;7.32;;;;;;;;;;4924017;29;20047;-54
2021/05/30 01:48:26;;;;;;;10.40;6.65;;;;;;;;;;4921460;29;20051;-54
2021/05/30 01:50:53;;;;;;;11.00;5.97;;;;;;;;;;4921332;29;20044;-56
2021/05/30 01:53:25;;;;;;;10.90;6.38;;;;;;;;;;4928614;29;20071;-56
2021/05/30 01:56:55;;;;;;;10.60;6.45;;;;;;;;;;4925566;29;20050;-58
2021/05/30 01:58:43;;;;;;;15.27;6.72;;;;;;;;;;4926691;29;20052;-58
2021/05/30 02:01:11;;;;;;;12.88;6.35;;;;;;;;;;4923268;29;20052;-57
2021/05/30 02:03:39;;;;;;;12.82;6.47;;;;;;;;;;4928925;29;20054;-56
2021/05/30 02:06:08;;;;;;;8.60;6.40;;;;;;;;;;4921836;29;20043;-57
2021/05/30 02:08:35;;;;;;;;;;;;;;;;;;4926631;29;20064;-55
2021/05/30 02:11:06;;;;;;;15.48;7.00;;;;;;;;;;4925675;29;19962;-56
2021/05/30 02:13:34;;;;;;;10.35;6.25;;;;;;;;;;4926599;29;20131;-58
2021/05/30 02:16:02;;;;;;;16.95;6.50;;;;;;;;;;4929088;29;20050;-58
2021/05/30 02:18:28;;;;;;;7.70;5.65;;;;;;;;;;4930337;29;20040;-58
2021/05/30 02:20:56;;;;;;;10.65;6.60;;;;;;;;;;4926706;29;20032;-58
2021/05/30 02:23:22;;;;;;;9.13;6.28;;;;;;;;;;4928542;29;20044;-58
2021/05/30 02:25:49;;;;;;;13.47;6.90;;;;;;;;;;4927462;29;20051;-58
2021/05/30 02:28:17;;;;;;;9.07;6.28;;;;;;;;;;4928444;29;20052;-55
2021/05/30 02:30:47;;;;;;;11.85;6.25;;;;;;;;;;4925785;29;20059;-58
2021/05/30 02:33:14;;;;;;;10.98;7.00;;;;;;;;;;4923107;29;20055;-58
2021/05/30 02:35:42;;;;;;;11.60;6.90;;;;;;;;;;4928407;29;20432;-53
2021/05/30 02:38:09;;;;;;;10.30;6.57;;;;;;;;;;4923926;29;20490;-56
2021/05/30 02:40:35;;;;;;;13.27;7.35;;;;;;;;;;4921815;29;20044;-53
2021/05/30 02:43:02;;;;;;;12.80;7.15;;;;;;;;;;4924790;29;20617;-56
2021/05/30 02:45:29;;;;;;;11.80;6.20;;;;;;;;;;4926320;29;20040;-57
2021/05/30 02:47:55;;;;;;;8.57;6.25;;;;;;;;;;4928124;29;20044;-55
2021/05/30 02:50:23;;;;;;;12.48;6.20;;;;;;;;;;4928455;29;20059;-57
2021/05/30 02:52:50;;;;;;;9.10;6.47;;;;;;;;;;4922629;29;20085;-55
2021/05/30 02:55:17;;;;;;;9.00;6.45;;;;;;;;;;4923002;29;20525;-57
2021/05/30 02:57:44;;;;;;;8.95;6.63;;;;;;;;;;4911392;29;20044;-58
2021/05/30 03:00:12;;;;;;;14.05;6.38;;;;;;;;;;4922978;29;20095;-55
2021/05/30 03:02:40;;;;;;;12.65;6.45;;;;;;;;;;4923460;29;20100;-57
2021/05/30 03:05:07;;;;;;;10.00;6.22;;;;;;;;;;4918977;29;20040;-58
2021/05/30 03:07:34;;;;;;;7.80;5.55;;;;;;;;;;4926831;29;20508;-58
2021/05/30 03:10:01;;;;;;;9.40;5.70;;;;;;;;;;4928221;29;20043;-57
2021/05/30 03:12:29;;;;;;;8.50;5.80;;;;;;;;;;4924940;29;20362;-54
2021/05/30 03:14:56;;;;;;;7.33;5.27;;;;;;;;;;4925873;29;20044;-55
2021/05/30 03:17:22;;;;;;;8.63;5.38;;;;;;;;;;4912170;29;20040;-55
2021/05/30 03:19:50;;;;;;;7.85;5.20;;;;;;;;;;4924443;29;20054;-55
2021/05/30 03:22:16;;;;;;;6.53;5.17;;;;;;;;;;4927018;29;20122;-55
2021/05/30 03:24:43;;;;;;;10.50;5.37;;;;;;;;;;4928823;29;20385;-55
2021/05/30 03:27:10;;;;;;;8.02;5.20;;;;;;;;;;4925039;29;20047;-57
2021/05/30 03:29:37;;;;;;;6.38;5.20;;;;;;;;;;4926463;29;20054;-57
2021/05/30 03:32:04;;;;;;;8.90;5.73;;;;;;;;;;4925863;29;20074;-54
2021/05/30 03:34:31;;;;;;;10.57;5.78;;;;;;;;;;4922568;29;20796;-54
2021/05/30 03:36:58;;;;;;;8.93;5.35;;;;;;;;;;4925673;29;20115;-54
2021/05/30 03:39:28;;;;;;;9.63;5.63;;;;;;;;;;4926864;29;20044;-56
2021/05/30 03:42:07;;;;;;;8.15;5.47;;;;;;;;;;4927486;29;20136;-57
2021/05/30 03:44:34;;;;;;;8.02;5.30;;;;;;;;;;4924400;29;20075;-54
2021/05/30 03:47:01;;;;;;;6.80;5.55;;;;;;;;;;4929787;29;20130;-58
2021/05/30 03:49:28;;;;;;;;;;;;;;;;;;4921372;29;20052;-57
2021/05/30 03:51:55;;;;;;;7.50;4.75;;;;;;;;;;4921286;29;19927;-56
2021/05/30 03:54:23;;;;;;;5.93;4.37;;;;;;;;;;4925267;29;20063;-58
2021/05/30 03:56:49;;;;;;;7.72;4.30;;;;;;;;;;4924547;29;20363;-57
2021/05/30 03:59:16;;;;;;;5.85;4.20;;;;;;;;;;4930511;29;20046;-58
2021/05/30 04:01:43;;;;;;;8.75;5.13;;;;;;;;;;4921588;29;20119;-59
2021/05/30 04:04:09;;;;;;;9.63;4.90;;;;;;;;;;4928818;29;20070;-56
2021/05/30 04:06:36;;;;;;;9.07;4.38;;;;;;;;;;4923257;29;20063;-55
2021/05/30 04:09:03;;;;;;;9.63;4.32;;;;;;;;;;4923897;29;20492;-54
2021/05/30 04:11:29;;;;;;;4.40;3.80;;;;;;;;;;4921164;29;20044;-56
2021/05/30 04:13:56;;;;;;;7.60;4.57;;;;;;;;;;4923182;29;20039;-57
2021/05/30 04:16:23;;;;;;;4.72;3.97;;;;;;;;;;4921782;29;20040;-55
2021/05/30 04:18:49;;;;;;;8.77;3.85;;;;;;;;;;4921359;29;20527;-56
2021/05/30 04:21:16;;;;;;;5.78;4.03;;;;;;;;;;4923246;29;20452;-55
2021/05/30 04:23:43;;;;;;;9.70;3.70;;;;;;;;;;4927027;29;20054;-56
2021/05/30 04:26:10;;;;;;;4.87;3.60;;;;;;;;;;4923542;29;20318;-56
2021/05/30 04:28:36;;;;;;;6.57;3.83;;;;;;;;;;4921756;29;20054;-56
2021/05/30 04:31:04;;;;;;;4.50;3.80;;;;;;;;;;4926390;29;20071;-56
2021/05/30 04:33:31;;;;;;;4.77;4.20;;;;;;;;;;4924308;29;21152;-57
2021/05/30 04:35:58;;;;;;;6.07;3.95;;;;;;;;;;4924822;29;20552;-57
2021/05/30 04:38:25;;;;;;;6.32;3.80;;;;;;;;;;4924153;29;20054;-57
2021/05/30 04:40:52;;;;;;;4.72;3.85;;;;;;;;;;4919894;29;20062;-55
2021/05/30 04:43:18;;;;;;;6.37;3.67;;;;;;;;;;4923389;29;20143;-54
2021/05/30 04:45:45;;;;;;;8.98;3.75;;;;;;;;;;4917005;29;20663;-57
2021/05/30 04:48:12;;;;;;;5.43;4.40;;;;;;;;;;4926473;29;20408;-56
2021/05/30 04:50:38;;;;;;;5.63;4.20;;;;;;;;;;4920425;29;20512;-55
2021/05/30 04:53:05;;;;;;;5.63;4.45;;;;;;;;;;4923705;29;20663;-56
2021/05/30 04:55:32;;;;;;;7.35;4.60;;;;;;;;;;4920170;29;20070;-55
2021/05/30 04:57:59;;;;;;;6.93;4.70;;;;;;;;;;4925838;29;20095;-56
2021/05/30 05:00:26;;;;;;;8.63;5.07;;;;;;;;;;4924468;29;20356;-54
2021/05/30 05:02:53;;;;;;;7.38;4.30;;;;;;;;;;4919352;29;20699;-54
2021/05/30 05:05:19;;;;;;;6.95;4.72;;;;;;;;;;4922951;29;20504;-55
2021/05/30 05:07:46;;;;;;;7.88;5.03;;;;;;;;;;4926449;29;20487;-56
2021/05/30 05:10:13;;;;;;;8.18;4.32;;;;;;;;;;4927903;29;20043;-54
2021/05/30 05:12:40;;;;;;;7.72;4.60;;;;;;;;;;4922855;29;20610;-56
2021/05/30 05:15:07;;;;;;;7.35;4.40;;;;;;;;;;4925287;29;20050;-53
2021/05/30 05:17:34;;;;;;;7.05;4.10;;;;;;;;;;4922970;29;20061;-56
2021/05/30 05:20:01;;;;;;;6.57;4.28;;;;;;;;;;4921368;29;20136;-56
2021/05/30 05:22:31;;;;;;;6.43;4.13;;;;;;;;;;4925109;29;20048;-55
2021/05/30 05:25:00;;;;;;;7.10;3.80;;;;;;;;;;4924642;29;20037;-56
2021/05/30 05:27:27;;;;;;;5.60;4.15;;;;;;;;;;4924486;29;20485;-54
2021/05/30 05:29:54;;;;;;;6.50;3.75;;;;;;;;;;4927071;29;20032;-54
2021/05/30 05:32:21;;;;;;;6.60;3.47;;;;;;;;;;4923532;29;20582;-56
2021/05/30 05:34:47;;;;;;;5.38;3.65;;;;;;;;;;4922267;29;20052;-56
2021/05/30 05:37:15;;;;;;;7.97;3.55;;;;;;;;;;4929268;29;20115;-55
2021/05/30 05:39:41;;;;;;;5.13;3.00;;;;;;;;;;4924600;29;20564;-55
2021/05/30 05:42:08;;;;;;;4.57;3.70;;;;;;;;;;4926505;29;20047;-55
2021/05/30 05:44:35;;;;;;;4.05;3.08;;;;;;;;;;4915028;29;20043;-55
2021/05/30 05:47:04;;;;;;;9.00;3.70;;;;;;;;;;4927222;29;20423;-53
2021/05/30 05:49:33;;;;;;;5.38;3.35;;;;;;;;;;4912412;29;20051;-55
2021/05/30 05:52:00;;;;;;;4.65;3.45;;;;;;;;;;4923794;29;20043;-54
2021/05/30 05:54:45;;;;;;;4.93;3.13;;;;;;;;;;4922057;29;20516;-54
2021/05/30 05:57:12;;;;;;;5.82;2.75;;;;;;;;;;4920506;29;20396;-54
2021/05/30 05:59:38;;;;;;;6.35;3.33;;;;;;;;;;4929164;29;20591;-53
2021/05/30 06:02:06;;;;;;;5.38;2.85;;;;;;;;;;4923292;29;20066;-56
2021/05/30 06:04:32;;;;;;;6.22;2.75;;;;;;;;;;4930726;29;20471;-56
2021/05/30 06:07:00;;;;;;;3.55;2.72;;;;;;;;;;4923984;29;20122;-51
2021/05/30 06:09:27;;;;;;;4.57;2.25;;;;;;;;;;4928923;29;20559;-55
2021/05/30 06:11:54;;;;;;;4.05;2.58;;;;;;;;;;4929807;29;20044;-53
2021/05/30 06:14:21;;;;;;;2.92;2.17;;;;;;;;;;4914339;29;20071;-56
2021/05/30 06:16:48;;;;;;;3.70;2.50;;;;;;;;;;4926679;29;20139;-53
2021/05/30 06:19:18;;;;;;;3.97;2.58;;;;;;;;;;4929519;29;20343;-55
2021/05/30 06:21:45;;;;;;;6.35;2.45;;;;;;;;;;4924882;29;20128;-57
2021/05/30 06:24:12;;;;;;;9.38;2.58;;;;;;;;;;4924646;29;20052;-56
2021/05/30 06:26:39;;;;;;;3.50;2.50;;;;;;;;;;4927326;29;20043;-54
2021/05/30 06:29:06;;;;;;;5.22;2.50;;;;;;;;;;4909783;29;20295;-54
2021/05/30 06:31:32;;;;;;;4.70;2.40;;;;;;;;;;4921536;29;20461;-56
2021/05/30 06:34:00;;;;;;;3.85;2.30;;;;;;;;;;4924070;29;20133;-52
2021/05/30 06:36:26;;;;;;;4.43;2.50;;;;;;;;;;4926785;29;20047;-57
2021/05/30 06:38:53;;;;;;;5.17;2.90;;;;;;;;;;4923332;29;20046;-53
2021/05/30 06:41:20;;;;;;;6.18;2.60;;;;;;;;;;4922732;29;20359;-52
2021/05/30 06:43:50;;;;;;;4.75;2.50;;;;;;;;;;4906920;29;20055;-55
2021/05/30 06:46:17;;;;;;;4.43;2.70;;;;;;;;;;4922059;29;20064;-56
2021/05/30 06:48:44;;;;;;;3.90;2.60;;;;;;;;;;4923262;29;20080;-55
2021/05/30 06:51:18;;;;;;;4.50;2.63;;;;;;;;;;4924338;29;20080;-54
2021/05/30 06:53:46;;;;;;;5.05;2.70;;;;;;;;;;4926200;29;20039;-53
2021/05/30 06:56:12;;;;;;;4.97;2.92;;;;;;;;;;4912075;29;20119;-56
2021/05/30 06:58:40;;;;;;;4.63;2.97;;;;;;;;;;4925713;29;20487;-57
2021/05/30 07:01:06;;;;;;;4.55;2.80;;;;;;;;;;4925532;29;20071;-57
2021/05/30 07:03:33;;;;;;;3.65;2.53;;;;;;;;;;4926966;29;20068;-55
2021/05/30 07:06:00;;;;;;;;;;;;;;;;;;4924453;29;20087;-57
2021/05/30 07:08:27;;;;;;;4.50;2.90;;;;;;;;;;4926031;29;19927;-55
2021/05/30 07:10:54;;;;;;;4.15;2.75;;;;;;;;;;4924024;29;20103;-56
2021/05/30 07:13:23;;;;;;;4.20;2.58;;;;;;;;;;4925717;29;20048;-56
2021/05/30 07:15:53;;;;;;;6.82;2.67;;;;;;;;;;4925478;29;20561;-57
2021/05/30 07:18:20;;;;;;;5.03;2.83;;;;;;;;;;4927492;29;20393;-54
2021/05/30 07:20:47;;;;;;;4.97;2.67;;;;;;;;;;4920694;29;20040;-57
2021/05/30 07:23:15;;;;;;;4.60;2.85;;;;;;;;;;4922996;29;20044;-57
2021/05/30 07:25:43;;;;;;;8.68;2.78;;;;;;;;;;4928314;29;20613;-55
2021/05/30 07:28:09;;;;;;;4.73;2.63;;;;;;;;;;4930929;29;20491;-57
2021/05/30 07:30:36;;;;;;;5.07;2.50;;;;;;;;;;4921959;29;20047;-57
2021/05/30 07:33:06;;;;;;;8.87;2.80;;;;;;;;;;4926096;29;20049;-56
2021/05/30 07:35:34;;;;;;;4.15;2.47;;;;;;;;;;4923698;29;20044;-57
2021/05/30 07:38:00;;;;;;;;;;;;;;;;;;4928880;29;20047;-57
2021/05/30 07:40:27;;;;;;;5.38;2.33;;;;;;;;;;4921326;29;19927;-53
2021/05/30 07:42:54;;;;;;;4.50;2.78;;;;;;;;;;4921154;29;20411;-56
2021/05/30 07:45:22;;;;;;;5.22;2.70;;;;;;;;;;4922010;29;20061;-56
2021/05/30 07:47:49;;;;;;;5.75;2.70;;;;;;;;;;4912721;29;20048;-58
2021/05/30 07:50:17;;;;;;;6.38;3.05;;;;;;;;;;4910996;29;20039;-58
2021/05/30 07:52:44;;;;;;;3.78;2.70;;;;;;;;;;4920322;29;20050;-56
2021/05/30 07:55:11;;;;;;;;;;;;;;;;;;4922046;29;20044;-57
2021/05/30 07:57:38;;;;;;;10.90;2.80;;;;;;;;;;4921522;29;19926;-58
2021/05/30 08:00:09;;;;;;;4.07;2.78;;;;;;;;;;4910065;29;20048;-57
2021/05/30 08:02:40;;;;;;;4.88;2.95;;;;;;;;;;4921781;29;20051;-56
2021/05/30 08:05:10;;;;;;;5.95;3.17;;;;;;;;;;4926769;29;20055;-57
2021/05/30 08:07:37;;;;;;;4.78;2.88;;;;;;;;;;4923135;29;20448;-57
2021/05/30 08:10:08;;;;;;;6.03;2.83;;;;;;;;;;4905638;29;20054;-58
2021/05/30 08:12:35;;;;;;;4.78;2.72;;;;;;;;;;4925421;29;20036;-58
2021/05/30 08:15:03;;;;;;;3.70;2.85;;;;;;;;;;4926238;29;20052;-57
2021/05/30 08:17:32;;;;;;;4.68;2.72;;;;;;;;;;4922995;29;20048;-58
2021/05/30 08:19:59;;;;;;;4.53;3.00;;;;;;;;;;4923967;29;20040;-58
2021/05/30 08:22:26;;;;;;;9.52;2.78;;;;;;;;;;4921353;29;20600;-58
2021/05/30 08:24:53;;;;;;;3.95;2.65;;;;;;;;;;4926322;29;20043;-58
2021/05/30 08:27:20;;;;;;;;;;;;;;;;;;4926200;29;20043;-58
2021/05/30 08:29:47;;;;;;;2.83;2.38;;;;;;;;;;4921887;29;19923;-57
2021/05/30 08:32:14;;;;;;;6.50;2.95;;;;;;;;;;4922467;29;20087;-57
2021/05/30 08:34:41;;;;;;;3.40;2.55;;;;;;;;;;4916138;29;20122;-58
2021/05/30 08:37:08;;;;;;;5.07;3.07;;;;;;;;;;4925441;29;20083;-57
2021/05/30 08:39:34;;;;;;;3.77;2.70;;;;;;;;;;4925534;29;20464;-58
2021/05/30 08:42:01;;;;;;;;;;;;;;;;;;4920528;29;20052;-58
2021/05/30 08:44:28;;;;;;;5.70;2.60;;;;;;;;;;4922018;29;19931;-58
2021/05/30 08:46:55;;;;;;;4.43;2.63;;;;;;;;;;4921635;29;20052;-58
2021/05/30 08:49:22;;;;;;;4.93;2.67;;;;;;;;;;4928149;29;20047;-58
2021/05/30 08:51:48;;;;;;;4.30;2.90;;;;;;;;;;4921357;29;20074;-58
2021/05/30 08:54:18;;;;;;;4.90;2.97;;;;;;;;;;4924731;29;20046;-58
2021/05/30 08:56:47;;;;;;;4.95;2.42;;;;;;;;;;4909190;29;20160;-58
2021/05/30 08:59:15;;;;;;;4.18;2.78;;;;;;;;;;4919869;29;20444;-57
2021/05/30 09:01:45;;;;;;;4.30;2.55;;;;;;;;;;4920702;29;20576;-58
2021/05/30 09:04:13;;;;;;;4.95;2.83;;;;;;;;;;4927866;29;20087;-58
2021/05/30 09:06:41;;;;;;;6.68;2.67;;;;;;;;;;4927205;29;20120;-58
2021/05/30 09:09:08;;;;;;;4.60;2.58;;;;;;;;;;4928060;29;20442;-58
2021/05/30 09:11:46;;;;;;;5.63;2.97;;;;;;;;;;4926341;29;20054;-59
2021/05/30 09:14:24;;;;;;;4.07;3.00;;;;;;;;;;4928068;29;20047;-58
2021/05/30 09:16:59;;;;;;;3.20;2.50;;;;;;;;;;4927511;29;20035;-58
2021/05/30 09:19:31;;;;;;;5.55;2.88;;;;;;;;;;4920584;29;20086;-58
2021/05/30 09:22:17;;;;;;;7.25;2.92;;;;;;;;;;4926444;29;20468;-58
2021/05/30 09:24:50;;;;;;;4.95;2.80;;;;;;;;;;4925199;29;20044;-58
2021/05/30 09:27:32;;;;;;;4.35;2.97;;;;;;;;;;4925575;29;20051;-58
2021/05/30 09:30:13;;;;;;;3.45;2.67;;;;;;;;;;4928904;29;20043;-59
2021/05/30 09:32:55;;;;;;;4.90;2.80;;;;;;;;;;4923809;29;20043;-58
2021/05/30 09:35:22;;;;;;;7.70;3.00;;;;;;;;;;4921842;29;20161;-58
2021/05/30 09:38:15;;;;;;;4.38;2.67;;;;;;;;;;4921081;29;20134;-58
2021/05/30 09:41:05;;;;;;;5.20;2.97;;;;;;;;;;4921656;29;20067;-58
2021/05/30 09:43:36;;;;;;;5.60;3.00;;;;;;;;;;4913838;29;20055;-58
2021/05/30 09:46:07;;;;;;;7.85;2.90;;;;;;;;;;4933360;29;20043;-58
2021/05/30 09:48:38;;;;;;;6.72;3.47;;;;;;;;;;4927060;29;20048;-59
2021/05/30 09:51:23;;;;;;;5.47;2.83;;;;;;;;;;4931031;29;20518;-58
2021/05/30 09:53:55;;;;;;;7.47;3.08;;;;;;;;;;4924325;29;20051;-59
2021/05/30 09:56:35;;;;;;;4.57;2.80;;;;;;;;;;4926785;29;20048;-58
2021/05/30 09:59:04;;;;;;;7.78;3.50;;;;;;;;;;4920534;29;20044;-59
2021/05/30 10:01:45;;;;;;;6.03;2.75;;;;;;;;;;4926465;29;20058;-58
2021/05/30 10:04:14;;;;;;;4.05;2.90;;;;;;;;;;4925980;29;20515;-58
2021/05/30 10:06:41;;;;;;;6.78;2.97;;;;;;;;;;4926043;29;20054;-59
2021/05/30 10:09:11;;;;;;;5.75;2.65;;;;;;;;;;4928723;29;20056;-58
2021/05/30 10:11:39;;;;;;;6.32;2.80;;;;;;;;;;4929610;29;20043;-59
2021/05/30 10:14:05;;;;;;;;;;;;;;;;;;4919172;29;20043;-59
2021/05/30 10:16:33;;;;;;;4.72;2.90;;;;;;;;;;4924704;29;19927;-58
2021/05/30 10:19:19;;;;;;;4.85;2.90;;;;;;;;;;4926842;29;20448;-59
2021/05/30 10:21:52;;;;;;;5.93;2.92;;;;;;;;;;4913829;29;20551;-58
2021/05/30 10:24:21;;;;;;;6.95;2.75;;;;;;;;;;4920976;29;20047;-59
2021/05/30 10:26:47;;;;;;;;;;;;;;;;;;4915081;29;20051;-58
2021/05/30 10:29:15;;;;;;;5.38;2.63;;;;;;;;;;4910455;29;19923;-59
2021/05/30 10:31:45;;;;;;;5.35;2.63;;;;;;;;;;4930165;29;20047;-59
2021/05/30 10:34:13;;;;;;;5.43;2.53;;;;;;;;;;4923340;29;20075;-58
2021/05/30 10:36:45;;;;;;;6.10;2.97;;;;;;;;;;4929677;29;20058;-59
2021/05/30 10:39:33;;;;;;;3.90;2.92;;;;;;;;;;4930205;29;20714;-59
2021/05/30 10:42:08;;;;;;;4.57;2.78;;;;;;;;;;4923232;29;20503;-58
2021/05/30 10:44:54;;;;;;;3.30;2.60;;;;;;;;;;4921743;29;20047;-59
2021/05/30 10:47:21;;;;;;;4.70;2.80;;;;;;;;;;4929195;29;20492;-59
2021/05/30 10:50:12;;;;;;;6.88;3.03;;;;;;;;;;4926869;29;20055;-59
2021/05/30 10:52:50;;;;;;;4.32;2.80;;;;;;;;;;4923601;29;20409;-59
2021/05/30 10:55:19;;;;;;;5.53;2.95;;;;;;;;;;4928450;29;20122;-59
2021/05/30 10:57:49;;;;;;;8.65;2.85;;;;;;;;;;4925305;29;20413;-59
2021/05/30 11:00:18;;;;;;;4.65;2.97;;;;;;;;;;4924879;29;20099;-59
2021/05/30 11:05:42;;;;;;;4.20;2.78;;;;;;;;;;4926423;29;20404;-59
2021/05/30 11:08:45;;;;;;;4.68;2.90;;;;;;;;;;4926238;29;20047;-59
2021/05/30 11:11:11;;;;;;;4.57;2.70;;;;;;;;;;4846643;29;20467;-59
2021/05/30 11:13:57;;;;;;;4.90;2.88;;;;;;;;;;4907868;29;20052;-59
2021/05/30 11:16:25;;;;;;;4.85;2.95;;;;;;;;;;4924842;29;20039;-59
2021/05/30 11:19:08;;;;;;;5.93;2.80;;;;;;;;;;4923105;29;20044;-59
2021/05/30 11:21:43;;;;;;;5.88;3.15;;;;;;;;;;4920580;29;20483;-59
2021/05/30 11:24:11;;;;;;;7.43;3.13;;;;;;;;;;4925306;29;20456;-59
2021/05/30 11:26:38;;;;;;;7.05;2.60;;;;;;;;;;4921558;29;20505;-59
2021/05/30 11:29:05;;;;;;;4.75;2.75;;;;;;;;;;4925858;29;20107;-59
2021/05/30 11:31:33;;;;;;;4.55;2.88;;;;;;;;;;4921934;29;20040;-59
2021/05/30 11:34:01;;;;;;;4.35;2.97;;;;;;;;;;4923925;29;20044;-59
2021/05/30 11:36:28;;;;;;;5.63;3.13;;;;;;;;;;4928643;29;20058;-59
2021/05/30 11:38:57;;;;;;;4.43;2.90;;;;;;;;;;4926033;29;20047;-59
2021/05/30 11:41:26;;;;;;;5.30;3.00;;;;;;;;;;4925664;29;20127;-59
2021/05/30 11:43:56;;;;;;;5.22;3.30;;;;;;;;;;4927293;29;20640;-59
2021/05/30 11:46:25;;;;;;;6.55;2.90;;;;;;;;;;4924154;29;20091;-59
2021/05/30 11:49:02;;;;;;;6.13;2.95;;;;;;;;;;4924169;29;20507;-59
2021/05/30 11:51:45;;;;;;;5.25;2.67;;;;;;;;;;4936628;29;20098;-59
2021/05/30 11:54:12;;;;;;;4.85;3.20;;;;;;;;;;4923112;29;20048;-59
2021/05/30 11:56:39;;;;;;;3.47;2.97;;;;;;;;;;4929546;29;20512;-59
2021/05/30 11:59:05;;;;;;;;;;;;;;;;;;4930135;29;20587;-59
2021/05/30 12:01:45;;;;;;;4.28;3.20;;;;;;;;;;4926160;29;19923;-59
2021/05/30 12:04:21;;;;;;;5.00;2.78;;;;;;;;;;4928159;29;20044;-59
2021/05/30 12:06:48;;;;;;;9.50;3.15;;;;;;;;;;4927953;29;20040;-59
2021/05/30 12:09:15;;;;;;;4.45;2.90;;;;;;;;;;4923652;29;20044;-59
2021/05/30 12:11:42;;;;;;;6.50;3.28;;;;;;;;;;4923306;29;20053;-59
2021/05/30 12:14:09;;;;;;;4.93;2.70;;;;;;;;;;4919527;29;20055;-59
2021/05/30 12:16:36;;;;;;;4.38;3.00;;;;;;;;;;4921976;29;20555;-58
2021/05/30 12:19:03;;;;;;;;;;;;;;;;;;4922410;29;20144;-59
2021/05/30 12:21:40;;;;;;;5.35;2.72;;;;;;;;;;4922340;29;19941;-59
2021/05/30 12:24:08;;;;;;;8.88;2.97;;;;;;;;;;4921012;29;20058;-59
2021/05/30 12:26:36;;;;;;;3.80;2.80;;;;;;;;;;4923446;29;20042;-58
2021/05/30 12:29:02;;;;;;;4.32;2.85;;;;;;;;;;4921064;29;20051;-59
2021/05/30 12:31:29;;;;;;;7.47;2.92;;;;;;;;;;4926635;29;20040;-57
2021/05/30 12:34:02;;;;;;;4.78;2.83;;;;;;;;;;4925713;29;20530;-58
2021/05/30 12:36:29;;;;;;;9.52;2.92;;;;;;;;;;4925281;29;20118;-58
2021/05/30 12:39:02;;;;;;;4.88;2.92;;;;;;;;;;4928759;29;20130;-59
2021/05/30 12:41:30;;;;;;;5.45;2.80;;;;;;;;;;4925863;29;20090;-59
2021/05/30 12:44:09;;;;;;;5.28;2.90;;;;;;;;;;4925870;29;20040;-59
2021/05/30 12:46:36;;;;;;;3.72;2.50;;;;;;;;;;4926018;29;20071;-59
2021/05/30 12:49:12;;;;;;;3.72;2.55;;;;;;;;;;4924583;29;20759;-59
2021/05/30 12:51:55;;;;;;;3.93;2.70;;;;;;;;;;4924797;29;20062;-59
2021/05/30 12:54:22;;;;;;;7.05;2.88;;;;;;;;;;4924039;29;20652;-59
2021/05/30 12:56:49;;;;;;;5.63;2.92;;;;;;;;;;4927806;29;20441;-59
2021/05/30 12:59:17;;;;;;;4.60;2.85;;;;;;;;;;4928786;29;20040;-59
2021/05/30 13:01:46;;;;;;;4.18;2.92;;;;;;;;;;4925324;29;20060;-59
2021/05/30 13:04:16;;;;;;;4.05;2.70;;;;;;;;;;4925685;29;20056;-58
2021/05/30 13:06:55;;;;;;;4.95;3.22;;;;;;;;;;4925429;29;20036;-59
2021/05/30 13:09:22;;;;;;;5.03;2.65;;;;;;;;;;4928435;29;20091;-59
2021/05/30 13:11:49;;;;;;;4.82;3.20;;;;;;;;;;4924143;29;20050;-59
2021/05/30 13:14:29;;;;;;;5.38;2.95;;;;;;;;;;4924532;29;20044;-59
2021/05/30 13:17:15;;;;;;;5.40;2.50;;;;;;;;;;4928268;29;20548;-58
2021/05/30 13:20:00;;;;;;;4.70;2.83;;;;;;;;;;4924012;29;20052;-59
2021/05/30 13:22:28;;;;;;;4.22;2.70;;;;;;;;;;4928203;29;20040;-59
2021/05/30 13:24:55;;;;;;;4.82;2.95;;;;;;;;;;4926920;29;20068;-59
2021/05/30 13:27:25;;;;;;;4.28;2.75;;;;;;;;;;4926541;29;20082;-59
2021/05/30 13:30:01;;;;;;;4.47;2.90;;;;;;;;;;4931467;29;20036;-59
2021/05/30 13:32:28;;;;;;;4.63;2.67;;;;;;;;;;4928621;29;20048;-59
2021/05/30 13:34:55;;;;;;;3.60;2.50;;;;;;;;;;4925550;29;20451;-59
2021/05/30 13:37:22;;;;;;;5.00;2.95;;;;;;;;;;4926986;29;20051;-59
2021/05/30 13:39:56;;;;;;;4.40;3.03;;;;;;;;;;4927952;29;20138;-58
2021/05/30 13:42:25;;;;;;;3.25;2.70;;;;;;;;;;4920666;29;20040;-59
2021/05/30 13:44:52;;;;;;;6.15;3.00;;;;;;;;;;4926486;29;20049;-59
2021/05/30 13:47:19;;;;;;;6.88;2.75;;;;;;;;;;4925830;29;20036;-58
2021/05/30 13:49:46;;;;;;;;;;;;;;;;;;4922698;29;20040;-59
2021/05/30 13:52:13;;;;;;;5.05;2.78;;;;;;;;;;4932181;29;19922;-59
2021/05/30 13:54:40;;;;;;;5.20;2.65;;;;;;;;;;4928316;29;20042;-59
2021/05/30 13:57:07;;;;;;;6.32;3.05;;;;;;;;;;4932768;29;20640;-59
2021/05/30 13:59:33;;;;;;;4.45;3.03;;;;;;;;;;4926574;29;20051;-59
2021/05/30 14:02:00;;;;;;;3.90;2.60;;;;;;;;;;4921672;29;20424;-59
2021/05/30 14:04:28;;;;;;;5.07;2.60;;;;;;;;;;4923271;29;20048;-59
2021/05/30 14:06:54;;;;;;;5.18;3.42;;;;;;;;;;4925655;29;20044;-58
2021/05/30 14:09:21;;;;;;;6.17;3.00;;;;;;;;;;4923516;29;20039;-59
2021/05/30 14:11:48;;;;;;;7.90;2.88;;;;;;;;;;4922289;29;20307;-59
2021/05/30 14:14:15;;;;;;;4.10;2.53;;;;;;;;;;4923737;29;20137;-59
2021/05/30 14:16:41;;;;;;;5.82;2.90;;;;;;;;;;4920640;29;20920;-59
2021/05/30 14:19:08;;;;;;;3.60;2.85;;;;;;;;;;4923002;29;20058;-58
2021/05/30 14:21:35;;;;;;;5.18;2.72;;;;;;;;;;4927104;29;20106;-59
2021/05/30 14:24:02;;;;;;;5.28;2.88;;;;;;;;;;4925772;29;20048;-59
2021/05/30 14:26:30;;;;;;;4.97;2.80;;;;;;;;;;4929958;29;20425;-59
2021/05/30 14:28:57;;;;;;;4.85;2.97;;;;;;;;;;4923338;29;20048;-59
2021/05/30 14:31:23;;;;;;;4.55;2.65;;;;;;;;;;4922835;29;20062;-59
2021/05/30 14:33:50;;;;;;;5.35;3.05;;;;;;;;;;4907858;29;20055;-59
2021/05/30 14:36:17;;;;;;;4.00;2.78;;;;;;;;;;4924995;29;20055;-59
2021/05/30 14:38:44;;;;;;;6.05;2.65;;;;;;;;;;4930601;29;20388;-59
2021/05/30 14:41:11;;;;;;;5.13;3.10;;;;;;;;;;4926340;29;20477;-59
2021/05/30 14:43:37;;;;;;;4.43;2.50;;;;;;;;;;4924864;29;20043;-59
2021/05/30 14:46:04;;;;;;;4.55;2.72;;;;;;;;;;4922351;29;20055;-59
2021/05/30 14:48:31;;;;;;;4.28;2.45;;;;;;;;;;4923604;29;20492;-59
2021/05/30 14:50:58;;;;;;;5.50;2.95;;;;;;;;;;4926882;29;20126;-59
2021/05/30 14:53:24;;;;;;;7.53;2.85;;;;;;;;;;4925318;29;20055;-59
2021/05/30 14:55:52;;;;;;;5.28;2.42;;;;;;;;;;4926869;29;20616;-58
2021/05/30 14:58:18;;;;;;;3.67;2.70;;;;;;;;;;4913957;29;20067;-59